Saint Charles, Maryland
Current Conditions -  °F | °C
As of 6:08 AM on Friday 31 Oct 2014 (Local Time) from KDAA Reporting Station
Broken Clouds Broken Clouds  
Wind Chill: 39°   Ceiling: 6000
Heat Index: 39°   Visibility: 8mi
Dew Point: 37°   Wind: 0mph
Humidity: 93%   Direction: NA
Pressure: 30.01"   Gusts: NA
Location:  38.6305°N, 76.9735°W
Report Text: KDAA 311008Z AUTO 00000KT 8SM R32/5500FT BKN060 04/03 A3001 RMK AO2
Loading
Personal Weather Stations






























Interactive Weather Map
Tropical Storm Tracking
New forecast layout! Learn more

10-Day Weather Forecast

Advertisements
Track Severe Weather on mobile